sensor_id;sensor_type;location;lat;lon;timestamp;P1;durP1;ratioP1;P2;durP2;ratioP2
35188;SDS011;21762;54.480;18.556;2023-04-24T00:02:26;24.92;;;16.55;;
35188;SDS011;21762;54.480;18.556;2023-04-24T00:04:54;26.10;;;16.48;;
35188;SDS011;21762;54.480;18.556;2023-04-24T00:07:23;31.60;;;17.83;;
35188;SDS011;21762;54.480;18.556;2023-04-24T00:09:52;30.63;;;18.00;;
35188;SDS011;21762;54.480;18.556;2023-04-24T00:12:21;30.20;;;17.08;;
35188;SDS011;21762;54.480;18.556;2023-04-24T00:14:49;28.20;;;17.23;;
35188;SDS011;21762;54.480;18.556;2023-04-24T00:17:18;30.50;;;16.83;;
35188;SDS011;21762;54.480;18.556;2023-04-24T00:19:49;30.10;;;17.60;;
35188;SDS011;21762;54.480;18.556;2023-04-24T00:22:18;27.45;;;17.15;;
35188;SDS011;21762;54.480;18.556;2023-04-24T00:24:47;26.60;;;16.58;;
35188;SDS011;21762;54.480;18.556;2023-04-24T00:27:16;27.77;;;17.10;;
35188;SDS011;21762;54.480;18.556;2023-04-24T00:29:44;27.10;;;16.48;;
35188;SDS011;21762;54.480;18.556;2023-04-24T00:32:13;31.70;;;18.92;;
35188;SDS011;21762;54.480;18.556;2023-04-24T00:34:42;30.30;;;19.52;;
35188;SDS011;21762;54.480;18.556;2023-04-24T00:37:12;37.65;;;22.10;;
35188;SDS011;21762;54.480;18.556;2023-04-24T00:39:43;37.55;;;22.15;;
35188;SDS011;21762;54.480;18.556;2023-04-24T00:42:12;35.60;;;22.30;;
35188;SDS011;21762;54.480;18.556;2023-04-24T00:44:41;35.03;;;21.60;;
35188;SDS011;21762;54.480;18.556;2023-04-24T00:47:10;40.97;;;23.00;;
35188;SDS011;21762;54.480;18.556;2023-04-24T00:49:39;37.85;;;22.95;;
35188;SDS011;21762;54.480;18.556;2023-04-24T00:52:08;38.80;;;22.80;;
35188;SDS011;21762;54.480;18.556;2023-04-24T00:54:38;40.20;;;24.00;;
35188;SDS011;21762;54.480;18.556;2023-04-24T00:57:07;34.05;;;20.95;;
35188;SDS011;21762;54.480;18.556;2023-04-24T00:59:36;36.22;;;21.92;;
35188;SDS011;21762;54.480;18.556;2023-04-24T01:02:04;41.90;;;23.55;;
35188;SDS011;21762;54.480;18.556;2023-04-24T01:04:34;39.75;;;23.63;;
35188;SDS011;21762;54.480;18.556;2023-04-24T01:07:04;38.88;;;23.80;;
35188;SDS011;21762;54.480;18.556;2023-04-24T01:09:39;36.00;;;22.35;;
35188;SDS011;21762;54.480;18.556;2023-04-24T01:12:08;37.60;;;22.98;;
35188;SDS011;21762;54.480;18.556;2023-04-24T01:14:37;38.88;;;24.38;;
35188;SDS011;21762;54.480;18.556;2023-04-24T01:17:07;37.67;;;21.88;;
35188;SDS011;21762;54.480;18.556;2023-04-24T01:19:36;41.45;;;23.60;;
35188;SDS011;21762;54.480;18.556;2023-04-24T01:22:09;43.55;;;24.63;;
35188;SDS011;21762;54.480;18.556;2023-04-24T01:24:39;43.17;;;24.20;;
35188;SDS011;21762;54.480;18.556;2023-04-24T01:27:08;38.55;;;25.05;;
35188;SDS011;21762;54.480;18.556;2023-04-24T01:29:37;39.63;;;24.08;;
35188;SDS011;21762;54.480;18.556;2023-04-24T01:32:09;41.03;;;24.27;;
35188;SDS011;21762;54.480;18.556;2023-04-24T01:34:39;39.47;;;23.52;;
35188;SDS011;21762;54.480;18.556;2023-04-24T01:37:10;39.50;;;23.88;;
35188;SDS011;21762;54.480;18.556;2023-04-24T01:39:38;43.72;;;24.73;;
35188;SDS011;21762;54.480;18.556;2023-04-24T01:42:07;42.85;;;24.13;;
35188;SDS011;21762;54.480;18.556;2023-04-24T01:44:35;37.10;;;22.05;;
35188;SDS011;21762;54.480;18.556;2023-04-24T01:47:04;39.40;;;21.27;;
35188;SDS011;21762;54.480;18.556;2023-04-24T01:49:33;32.65;;;19.38;;
35188;SDS011;21762;54.480;18.556;2023-04-24T01:52:04;28.83;;;17.17;;
35188;SDS011;21762;54.480;18.556;2023-04-24T01:54:34;28.95;;;17.38;;
35188;SDS011;21762;54.480;18.556;2023-04-24T01:57:03;31.08;;;17.08;;
35188;SDS011;21762;54.480;18.556;2023-04-24T01:59:32;30.33;;;17.27;;
35188;SDS011;21762;54.480;18.556;2023-04-24T02:02:01;29.15;;;17.63;;
35188;SDS011;21762;54.480;18.556;2023-04-24T02:04:29;32.53;;;18.67;;
35188;SDS011;21762;54.480;18.556;2023-04-24T02:06:58;27.98;;;17.15;;
35188;SDS011;21762;54.480;18.556;2023-04-24T02:09:27;29.30;;;17.42;;
35188;SDS011;21762;54.480;18.556;2023-04-24T02:11:57;29.25;;;16.42;;
35188;SDS011;21762;54.480;18.556;2023-04-24T02:14:25;23.73;;;14.57;;
35188;SDS011;21762;54.480;18.556;2023-04-24T02:16:54;25.23;;;15.38;;
35188;SDS011;21762;54.480;18.556;2023-04-24T02:19:22;25.70;;;16.15;;
35188;SDS011;21762;54.480;18.556;2023-04-24T02:21:51;23.52;;;14.63;;
35188;SDS011;21762;54.480;18.556;2023-04-24T02:24:19;23.95;;;15.23;;
35188;SDS011;21762;54.480;18.556;2023-04-24T02:26:48;31.58;;;16.60;;
35188;SDS011;21762;54.480;18.556;2023-04-24T02:29:18;24.80;;;15.15;;
35188;SDS011;21762;54.480;18.556;2023-04-24T02:31:49;29.63;;;16.15;;
35188;SDS011;21762;54.480;18.556;2023-04-24T02:34:18;30.77;;;16.38;;
35188;SDS011;21762;54.480;18.556;2023-04-24T02:36:46;20.73;;;14.02;;
35188;SDS011;21762;54.480;18.556;2023-04-24T02:39:15;25.40;;;15.10;;
35188;SDS011;21762;54.480;18.556;2023-04-24T02:41:44;27.02;;;15.73;;
35188;SDS011;21762;54.480;18.556;2023-04-24T02:44:12;26.25;;;14.57;;
35188;SDS011;21762;54.480;18.556;2023-04-24T02:46:42;25.90;;;15.27;;
35188;SDS011;21762;54.480;18.556;2023-04-24T02:49:11;26.80;;;15.63;;
35188;SDS011;21762;54.480;18.556;2023-04-24T02:51:40;23.85;;;14.30;;
35188;SDS011;21762;54.480;18.556;2023-04-24T02:54:08;21.73;;;14.82;;
35188;SDS011;21762;54.480;18.556;2023-04-24T02:56:37;23.88;;;13.90;;
35188;SDS011;21762;54.480;18.556;2023-04-24T02:59:07;24.23;;;14.23;;
35188;SDS011;21762;54.480;18.556;2023-04-24T03:01:37;24.73;;;14.82;;
35188;SDS011;21762;54.480;18.556;2023-04-24T03:04:07;20.67;;;13.45;;
35188;SDS011;21762;54.480;18.556;2023-04-24T03:06:37;22.58;;;13.90;;
35188;SDS011;21762;54.480;18.556;2023-04-24T03:09:05;22.50;;;14.27;;
35188;SDS011;21762;54.480;18.556;2023-04-24T03:11:34;25.02;;;13.85;;
35188;SDS011;21762;54.480;18.556;2023-04-24T03:14:02;27.10;;;15.00;;
35188;SDS011;21762;54.480;18.556;2023-04-24T03:16:31;18.15;;;11.45;;
35188;SDS011;21762;54.480;18.556;2023-04-24T03:18:59;23.88;;;13.05;;
35188;SDS011;21762;54.480;18.556;2023-04-24T03:24:02;21.33;;;11.30;;
35188;SDS011;21762;54.480;18.556;2023-04-24T03:26:31;18.58;;;12.25;;
35188;SDS011;21762;54.480;18.556;2023-04-24T03:29:17;19.17;;;12.05;;
35188;SDS011;21762;54.480;18.556;2023-04-24T03:31:46;21.48;;;12.85;;
35188;SDS011;21762;54.480;18.556;2023-04-24T03:34:14;18.35;;;12.48;;
35188;SDS011;21762;54.480;18.556;2023-04-24T03:36:44;20.55;;;11.77;;
35188;SDS011;21762;54.480;18.556;2023-04-24T03:41:50;21.73;;;12.10;;
35188;SDS011;21762;54.480;18.556;2023-04-24T03:44:23;21.45;;;12.40;;
35188;SDS011;21762;54.480;18.556;2023-04-24T03:46:52;20.15;;;12.23;;
35188;SDS011;21762;54.480;18.556;2023-04-24T03:49:22;24.23;;;12.02;;
35188;SDS011;21762;54.480;18.556;2023-04-24T03:51:53;23.90;;;13.20;;
35188;SDS011;21762;54.480;18.556;2023-04-24T03:54:24;25.45;;;12.52;;
35188;SDS011;21762;54.480;18.556;2023-04-24T03:56:54;29.05;;;12.60;;
35188;SDS011;21762;54.480;18.556;2023-04-24T03:59:24;27.30;;;12.38;;
35188;SDS011;21762;54.480;18.556;2023-04-24T04:02:05;30.75;;;13.23;;
35188;SDS011;21762;54.480;18.556;2023-04-24T04:04:34;32.63;;;13.70;;
35188;SDS011;21762;54.480;18.556;2023-04-24T04:07:05;28.98;;;13.32;;
35188;SDS011;21762;54.480;18.556;2023-04-24T04:09:34;35.80;;;14.07;;
35188;SDS011;21762;54.480;18.556;2023-04-24T04:12:03;31.25;;;14.23;;
35188;SDS011;21762;54.480;18.556;2023-04-24T04:14:33;25.20;;;15.95;;
35188;SDS011;21762;54.480;18.556;2023-04-24T04:17:01;31.05;;;15.75;;
35188;SDS011;21762;54.480;18.556;2023-04-24T04:19:30;31.65;;;14.73;;
35188;SDS011;21762;54.480;18.556;2023-04-24T04:21:58;30.98;;;15.15;;
35188;SDS011;21762;54.480;18.556;2023-04-24T04:24:37;36.20;;;16.30;;
35188;SDS011;21762;54.480;18.556;2023-04-24T04:27:08;34.75;;;16.25;;
35188;SDS011;21762;54.480;18.556;2023-04-24T04:29:47;31.05;;;15.10;;
35188;SDS011;21762;54.480;18.556;2023-04-24T04:32:16;31.83;;;14.82;;
35188;SDS011;21762;54.480;18.556;2023-04-24T04:34:44;25.67;;;14.05;;
35188;SDS011;21762;54.480;18.556;2023-04-24T04:37:13;29.00;;;15.00;;
35188;SDS011;21762;54.480;18.556;2023-04-24T04:40:02;25.02;;;14.00;;
35188;SDS011;21762;54.480;18.556;2023-04-24T04:42:39;27.30;;;13.98;;
35188;SDS011;21762;54.480;18.556;2023-04-24T04:45:09;28.33;;;13.50;;
35188;SDS011;21762;54.480;18.556;2023-04-24T04:47:55;31.25;;;15.10;;
35188;SDS011;21762;54.480;18.556;2023-04-24T04:50:24;30.00;;;15.05;;
35188;SDS011;21762;54.480;18.556;2023-04-24T04:52:59;31.55;;;15.43;;
35188;SDS011;21762;54.480;18.556;2023-04-24T04:55:33;30.40;;;15.50;;
35188;SDS011;21762;54.480;18.556;2023-04-24T04:58:07;30.15;;;15.95;;
35188;SDS011;21762;54.480;18.556;2023-04-24T05:00:36;27.08;;;15.10;;
35188;SDS011;21762;54.480;18.556;2023-04-24T05:03:14;32.33;;;15.45;;
35188;SDS011;21762;54.480;18.556;2023-04-24T05:05:47;28.52;;;14.85;;
35188;SDS011;21762;54.480;18.556;2023-04-24T05:08:17;30.65;;;14.55;;
35188;SDS011;21762;54.480;18.556;2023-04-24T05:10:53;29.80;;;14.80;;
35188;SDS011;21762;54.480;18.556;2023-04-24T05:13:24;27.50;;;14.85;;
35188;SDS011;21762;54.480;18.556;2023-04-24T05:16:04;25.02;;;14.07;;
35188;SDS011;21762;54.480;18.556;2023-04-24T05:18:34;25.83;;;14.32;;
35188;SDS011;21762;54.480;18.556;2023-04-24T05:21:04;32.65;;;15.27;;
35188;SDS011;21762;54.480;18.556;2023-04-24T05:23:33;36.95;;;16.17;;
35188;SDS011;21762;54.480;18.556;2023-04-24T05:26:03;29.00;;;15.43;;
35188;SDS011;21762;54.480;18.556;2023-04-24T05:28:33;33.22;;;15.32;;
35188;SDS011;21762;54.480;18.556;2023-04-24T05:31:07;32.38;;;16.67;;
35188;SDS011;21762;54.480;18.556;2023-04-24T05:33:36;33.10;;;15.38;;
35188;SDS011;21762;54.480;18.556;2023-04-24T05:36:05;32.65;;;18.25;;
35188;SDS011;21762;54.480;18.556;2023-04-24T05:38:35;39.20;;;18.20;;
35188;SDS011;21762;54.480;18.556;2023-04-24T05:41:05;38.08;;;17.05;;
35188;SDS011;21762;54.480;18.556;2023-04-24T05:43:35;35.60;;;16.05;;
35188;SDS011;21762;54.480;18.556;2023-04-24T05:46:03;34.95;;;17.02;;
35188;SDS011;21762;54.480;18.556;2023-04-24T05:48:32;34.92;;;17.00;;
35188;SDS011;21762;54.480;18.556;2023-04-24T05:51:02;37.40;;;17.58;;
35188;SDS011;21762;54.480;18.556;2023-04-24T05:53:31;45.15;;;18.65;;
35188;SDS011;21762;54.480;18.556;2023-04-24T05:56:00;36.60;;;17.60;;
35188;SDS011;21762;54.480;18.556;2023-04-24T05:58:30;47.15;;;18.77;;
35188;SDS011;21762;54.480;18.556;2023-04-24T06:00:59;43.50;;;17.77;;
35188;SDS011;21762;54.480;18.556;2023-04-24T06:03:29;45.58;;;19.35;;
35188;SDS011;21762;54.480;18.556;2023-04-24T06:05:58;49.42;;;19.40;;
35188;SDS011;21762;54.480;18.556;2023-04-24T06:08:27;51.15;;;17.88;;
35188;SDS011;21762;54.480;18.556;2023-04-24T06:10:58;44.58;;;18.25;;
35188;SDS011;21762;54.480;18.556;2023-04-24T06:13:28;39.25;;;17.55;;
35188;SDS011;21762;54.480;18.556;2023-04-24T06:16:27;34.75;;;15.65;;
35188;SDS011;21762;54.480;18.556;2023-04-24T06:19:01;31.80;;;15.13;;
35188;SDS011;21762;54.480;18.556;2023-04-24T06:21:30;36.33;;;14.48;;
35188;SDS011;21762;54.480;18.556;2023-04-24T06:23:59;39.22;;;16.20;;
35188;SDS011;21762;54.480;18.556;2023-04-24T06:26:28;25.15;;;13.00;;
35188;SDS011;21762;54.480;18.556;2023-04-24T06:28:56;24.77;;;12.60;;
35188;SDS011;21762;54.480;18.556;2023-04-24T06:31:28;26.42;;;13.02;;
35188;SDS011;21762;54.480;18.556;2023-04-24T06:33:57;29.08;;;13.90;;
35188;SDS011;21762;54.480;18.556;2023-04-24T06:36:25;30.05;;;12.55;;
35188;SDS011;21762;54.480;18.556;2023-04-24T06:38:54;25.95;;;12.73;;
35188;SDS011;21762;54.480;18.556;2023-04-24T06:41:24;26.85;;;12.77;;
35188;SDS011;21762;54.480;18.556;2023-04-24T06:43:52;27.73;;;12.50;;
35188;SDS011;21762;54.480;18.556;2023-04-24T06:46:21;24.25;;;11.70;;
35188;SDS011;21762;54.480;18.556;2023-04-24T06:48:54;26.10;;;13.15;;
35188;SDS011;21762;54.480;18.556;2023-04-24T06:51:23;23.05;;;12.15;;
35188;SDS011;21762;54.480;18.556;2023-04-24T06:53:52;25.52;;;12.93;;
35188;SDS011;21762;54.480;18.556;2023-04-24T06:56:22;21.30;;;11.85;;
35188;SDS011;21762;54.480;18.556;2023-04-24T06:58:52;21.63;;;12.00;;
35188;SDS011;21762;54.480;18.556;2023-04-24T07:01:20;15.85;;;9.48;;
35188;SDS011;21762;54.480;18.556;2023-04-24T07:03:49;11.30;;;7.32;;
35188;SDS011;21762;54.480;18.556;2023-04-24T07:06:20;13.52;;;9.50;;
35188;SDS011;21762;54.480;18.556;2023-04-24T07:08:50;12.13;;;8.73;;
35188;SDS011;21762;54.480;18.556;2023-04-24T07:11:19;12.63;;;7.88;;
35188;SDS011;21762;54.480;18.556;2023-04-24T07:13:49;12.63;;;8.43;;
35188;SDS011;21762;54.480;18.556;2023-04-24T07:16:17;14.13;;;9.65;;
35188;SDS011;21762;54.480;18.556;2023-04-24T07:18:46;16.17;;;9.68;;
35188;SDS011;21762;54.480;18.556;2023-04-24T07:21:15;17.65;;;10.48;;
35188;SDS011;21762;54.480;18.556;2023-04-24T07:23:45;15.52;;;10.38;;
35188;SDS011;21762;54.480;18.556;2023-04-24T07:26:14;17.98;;;11.75;;
35188;SDS011;21762;54.480;18.556;2023-04-24T07:28:43;17.02;;;10.93;;
35188;SDS011;21762;54.480;18.556;2023-04-24T07:31:12;18.80;;;11.50;;
35188;SDS011;21762;54.480;18.556;2023-04-24T07:33:41;16.35;;;10.93;;
35188;SDS011;21762;54.480;18.556;2023-04-24T07:36:09;18.27;;;10.95;;
35188;SDS011;21762;54.480;18.556;2023-04-24T07:38:45;16.10;;;10.60;;
35188;SDS011;21762;54.480;18.556;2023-04-24T07:41:13;16.20;;;10.27;;
35188;SDS011;21762;54.480;18.556;2023-04-24T07:43:43;17.98;;;10.95;;
35188;SDS011;21762;54.480;18.556;2023-04-24T07:46:12;21.00;;;9.93;;
35188;SDS011;21762;54.480;18.556;2023-04-24T07:48:41;17.05;;;9.68;;
35188;SDS011;21762;54.480;18.556;2023-04-24T07:51:10;17.33;;;10.23;;
35188;SDS011;21762;54.480;18.556;2023-04-24T07:53:40;16.90;;;9.40;;
35188;SDS011;21762;54.480;18.556;2023-04-24T07:56:10;15.57;;;9.88;;
35188;SDS011;21762;54.480;18.556;2023-04-24T07:58:39;11.27;;;8.23;;
35188;SDS011;21762;54.480;18.556;2023-04-24T08:01:08;13.30;;;8.32;;
35188;SDS011;21762;54.480;18.556;2023-04-24T08:03:37;14.00;;;7.45;;
35188;SDS011;21762;54.480;18.556;2023-04-24T08:06:05;14.27;;;8.35;;
35188;SDS011;21762;54.480;18.556;2023-04-24T08:08:34;14.80;;;9.07;;
35188;SDS011;21762;54.480;18.556;2023-04-24T08:11:03;13.52;;;8.18;;
35188;SDS011;21762;54.480;18.556;2023-04-24T08:13:34;11.40;;;7.72;;
35188;SDS011;21762;54.480;18.556;2023-04-24T08:16:02;10.20;;;6.95;;
35188;SDS011;21762;54.480;18.556;2023-04-24T08:18:31;10.18;;;6.90;;
35188;SDS011;21762;54.480;18.556;2023-04-24T08:21:01;9.57;;;7.53;;
35188;SDS011;21762;54.480;18.556;2023-04-24T08:23:30;7.30;;;6.03;;
35188;SDS011;21762;54.480;18.556;2023-04-24T08:25:59;9.13;;;6.70;;
35188;SDS011;21762;54.480;18.556;2023-04-24T08:28:28;10.77;;;7.00;;
35188;SDS011;21762;54.480;18.556;2023-04-24T08:30:58;8.43;;;6.00;;
35188;SDS011;21762;54.480;18.556;2023-04-24T08:33:26;11.65;;;7.45;;
35188;SDS011;21762;54.480;18.556;2023-04-24T08:36:01;12.95;;;7.78;;
35188;SDS011;21762;54.480;18.556;2023-04-24T08:38:30;10.48;;;7.28;;
35188;SDS011;21762;54.480;18.556;2023-04-24T08:41:00;12.60;;;8.13;;
35188;SDS011;21762;54.480;18.556;2023-04-24T08:43:29;12.07;;;8.00;;
35188;SDS011;21762;54.480;18.556;2023-04-24T08:45:59;10.98;;;7.43;;
35188;SDS011;21762;54.480;18.556;2023-04-24T08:48:29;11.93;;;8.02;;
35188;SDS011;21762;54.480;18.556;2023-04-24T08:50:59;12.10;;;8.82;;
35188;SDS011;21762;54.480;18.556;2023-04-24T08:53:28;11.57;;;8.13;;
35188;SDS011;21762;54.480;18.556;2023-04-24T08:55:57;14.40;;;7.97;;
35188;SDS011;21762;54.480;18.556;2023-04-24T08:58:25;12.75;;;8.63;;
35188;SDS011;21762;54.480;18.556;2023-04-24T09:00:55;11.18;;;7.93;;
35188;SDS011;21762;54.480;18.556;2023-04-24T09:03:26;12.45;;;7.90;;
35188;SDS011;21762;54.480;18.556;2023-04-24T09:05:55;10.32;;;7.72;;
35188;SDS011;21762;54.480;18.556;2023-04-24T09:08:26;13.90;;;9.07;;
35188;SDS011;21762;54.480;18.556;2023-04-24T09:10:56;14.57;;;9.10;;
35188;SDS011;21762;54.480;18.556;2023-04-24T09:13:25;14.18;;;9.43;;
35188;SDS011;21762;54.480;18.556;2023-04-24T09:15:55;11.63;;;8.63;;
35188;SDS011;21762;54.480;18.556;2023-04-24T09:18:28;12.82;;;9.18;;
35188;SDS011;21762;54.480;18.556;2023-04-24T09:20:57;12.07;;;8.48;;
35188;SDS011;21762;54.480;18.556;2023-04-24T09:23:27;11.32;;;8.40;;
35188;SDS011;21762;54.480;18.556;2023-04-24T09:25:57;12.60;;;8.52;;
35188;SDS011;21762;54.480;18.556;2023-04-24T09:28:29;12.68;;;8.80;;
35188;SDS011;21762;54.480;18.556;2023-04-24T09:31:07;12.15;;;8.32;;
35188;SDS011;21762;54.480;18.556;2023-04-24T09:33:38;12.13;;;8.38;;
35188;SDS011;21762;54.480;18.556;2023-04-24T09:36:07;12.77;;;7.53;;
35188;SDS011;21762;54.480;18.556;2023-04-24T09:38:37;13.35;;;8.60;;
35188;SDS011;21762;54.480;18.556;2023-04-24T09:41:07;14.82;;;8.77;;
35188;SDS011;21762;54.480;18.556;2023-04-24T09:43:37;15.95;;;9.75;;
35188;SDS011;21762;54.480;18.556;2023-04-24T09:46:06;15.23;;;8.27;;
35188;SDS011;21762;54.480;18.556;2023-04-24T09:48:37;18.75;;;9.38;;
35188;SDS011;21762;54.480;18.556;2023-04-24T09:51:07;17.20;;;9.50;;
35188;SDS011;21762;54.480;18.556;2023-04-24T09:53:37;11.15;;;7.55;;
35188;SDS011;21762;54.480;18.556;2023-04-24T09:56:11;13.25;;;7.95;;
35188;SDS011;21762;54.480;18.556;2023-04-24T09:58:40;16.10;;;9.27;;
35188;SDS011;21762;54.480;18.556;2023-04-24T10:01:09;15.70;;;8.63;;
35188;SDS011;21762;54.480;18.556;2023-04-24T10:03:39;14.20;;;8.35;;
35188;SDS011;21762;54.480;18.556;2023-04-24T10:06:12;12.65;;;7.50;;
35188;SDS011;21762;54.480;18.556;2023-04-24T10:08:41;16.98;;;9.25;;
35188;SDS011;21762;54.480;18.556;2023-04-24T10:11:10;18.35;;;10.25;;
35188;SDS011;21762;54.480;18.556;2023-04-24T10:13:40;21.33;;;10.88;;
35188;SDS011;21762;54.480;18.556;2023-04-24T10:16:08;17.58;;;9.60;;
35188;SDS011;21762;54.480;18.556;2023-04-24T10:18:39;18.40;;;11.05;;
35188;SDS011;21762;54.480;18.556;2023-04-24T10:21:08;18.65;;;10.45;;
35188;SDS011;21762;54.480;18.556;2023-04-24T10:23:37;19.50;;;11.30;;
35188;SDS011;21762;54.480;18.556;2023-04-24T10:26:06;18.95;;;9.55;;
35188;SDS011;21762;54.480;18.556;2023-04-24T10:28:34;18.15;;;10.18;;
35188;SDS011;21762;54.480;18.556;2023-04-24T10:31:04;18.58;;;10.57;;
35188;SDS011;21762;54.480;18.556;2023-04-24T10:33:33;23.20;;;10.90;;
35188;SDS011;21762;54.480;18.556;2023-04-24T10:36:03;19.35;;;10.48;;
35188;SDS011;21762;54.480;18.556;2023-04-24T10:38:33;18.45;;;10.93;;
35188;SDS011;21762;54.480;18.556;2023-04-24T10:41:09;15.43;;;8.23;;
35188;SDS011;21762;54.480;18.556;2023-04-24T10:43:43;13.77;;;7.85;;
35188;SDS011;21762;54.480;18.556;2023-04-24T10:46:16;14.13;;;8.85;;
35188;SDS011;21762;54.480;18.556;2023-04-24T10:48:52;18.45;;;11.07;;
35188;SDS011;21762;54.480;18.556;2023-04-24T10:51:23;16.85;;;10.88;;
35188;SDS011;21762;54.480;18.556;2023-04-24T10:53:53;16.80;;;10.20;;
35188;SDS011;21762;54.480;18.556;2023-04-24T10:56:22;13.82;;;8.27;;
35188;SDS011;21762;54.480;18.556;2023-04-24T10:58:51;11.20;;;6.32;;
35188;SDS011;21762;54.480;18.556;2023-04-24T11:01:24;14.02;;;6.90;;
35188;SDS011;21762;54.480;18.556;2023-04-24T11:03:54;10.27;;;5.20;;
35188;SDS011;21762;54.480;18.556;2023-04-24T11:06:32;11.25;;;4.45;;
35188;SDS011;21762;54.480;18.556;2023-04-24T11:09:03;12.18;;;4.72;;
35188;SDS011;21762;54.480;18.556;2023-04-24T11:11:33;8.77;;;4.72;;
35188;SDS011;21762;54.480;18.556;2023-04-24T11:14:05;7.68;;;4.03;;
35188;SDS011;21762;54.480;18.556;2023-04-24T11:16:39;8.77;;;5.10;;
35188;SDS011;21762;54.480;18.556;2023-04-24T11:19:18;10.38;;;6.78;;
35188;SDS011;21762;54.480;18.556;2023-04-24T11:21:54;12.27;;;7.40;;
35188;SDS011;21762;54.480;18.556;2023-04-24T11:24:29;13.85;;;9.52;;
35188;SDS011;21762;54.480;18.556;2023-04-24T11:27:00;14.40;;;8.90;;
35188;SDS011;21762;54.480;18.556;2023-04-24T11:29:38;12.85;;;8.75;;
35188;SDS011;21762;54.480;18.556;2023-04-24T11:32:14;14.13;;;9.00;;
35188;SDS011;21762;54.480;18.556;2023-04-24T11:35:02;18.38;;;8.98;;
35188;SDS011;21762;54.480;18.556;2023-04-24T11:37:37;13.20;;;8.60;;
35188;SDS011;21762;54.480;18.556;2023-04-24T11:40:08;11.25;;;7.20;;
35188;SDS011;21762;54.480;18.556;2023-04-24T11:42:39;13.10;;;8.27;;
35188;SDS011;21762;54.480;18.556;2023-04-24T11:45:09;16.02;;;9.95;;
35188;SDS011;21762;54.480;18.556;2023-04-24T11:47:39;15.23;;;9.15;;
35188;SDS011;21762;54.480;18.556;2023-04-24T11:50:09;15.75;;;9.88;;
35188;SDS011;21762;54.480;18.556;2023-04-24T11:52:40;14.25;;;8.95;;
35188;SDS011;21762;54.480;18.556;2023-04-24T11:55:22;14.18;;;10.05;;
35188;SDS011;21762;54.480;18.556;2023-04-24T11:57:54;17.85;;;9.07;;
35188;SDS011;21762;54.480;18.556;2023-04-24T12:00:25;20.80;;;10.38;;
35188;SDS011;21762;54.480;18.556;2023-04-24T12:03:03;16.65;;;10.13;;
35188;SDS011;21762;54.480;18.556;2023-04-24T12:05:33;16.00;;;10.60;;
35188;SDS011;21762;54.480;18.556;2023-04-24T12:08:04;20.67;;;10.65;;
35188;SDS011;21762;54.480;18.556;2023-04-24T12:10:33;19.00;;;12.13;;
35188;SDS011;21762;54.480;18.556;2023-04-24T12:13:02;21.05;;;13.27;;
35188;SDS011;21762;54.480;18.556;2023-04-24T12:15:31;18.85;;;12.23;;
35188;SDS011;21762;54.480;18.556;2023-04-24T12:18:00;20.65;;;13.10;;
35188;SDS011;21762;54.480;18.556;2023-04-24T12:20:29;16.50;;;11.57;;
35188;SDS011;21762;54.480;18.556;2023-04-24T12:22:58;20.15;;;13.20;;
35188;SDS011;21762;54.480;18.556;2023-04-24T12:25:29;18.90;;;12.02;;
35188;SDS011;21762;54.480;18.556;2023-04-24T12:28:08;20.00;;;12.57;;
35188;SDS011;21762;54.480;18.556;2023-04-24T12:30:39;13.55;;;10.75;;
35188;SDS011;21762;54.480;18.556;2023-04-24T12:33:09;22.30;;;11.38;;
35188;SDS011;21762;54.480;18.556;2023-04-24T12:35:39;19.60;;;10.15;;
35188;SDS011;21762;54.480;18.556;2023-04-24T12:38:09;13.77;;;9.43;;
35188;SDS011;21762;54.480;18.556;2023-04-24T12:40:41;16.55;;;9.68;;
35188;SDS011;21762;54.480;18.556;2023-04-24T12:43:13;13.37;;;8.33;;
35188;SDS011;21762;54.480;18.556;2023-04-24T12:45:43;9.93;;;6.80;;
35188;SDS011;21762;54.480;18.556;2023-04-24T12:48:12;10.40;;;5.50;;
35188;SDS011;21762;54.480;18.556;2023-04-24T12:50:41;5.65;;;4.38;;
35188;SDS011;21762;54.480;18.556;2023-04-24T12:53:11;8.55;;;4.10;;
35188;SDS011;21762;54.480;18.556;2023-04-24T12:55:41;7.57;;;3.95;;
35188;SDS011;21762;54.480;18.556;2023-04-24T12:58:11;6.88;;;3.58;;
35188;SDS011;21762;54.480;18.556;2023-04-24T13:00:39;7.35;;;3.80;;
35188;SDS011;21762;54.480;18.556;2023-04-24T13:03:10;9.15;;;3.30;;
35188;SDS011;21762;54.480;18.556;2023-04-24T13:05:39;5.72;;;3.42;;
35188;SDS011;21762;54.480;18.556;2023-04-24T13:08:08;9.77;;;3.90;;
35188;SDS011;21762;54.480;18.556;2023-04-24T13:10:36;4.60;;;3.38;;
35188;SDS011;21762;54.480;18.556;2023-04-24T13:13:07;7.80;;;2.85;;
35188;SDS011;21762;54.480;18.556;2023-04-24T13:15:36;4.93;;;2.90;;
35188;SDS011;21762;54.480;18.556;2023-04-24T13:18:04;8.05;;;3.28;;
35188;SDS011;21762;54.480;18.556;2023-04-24T13:20:33;5.63;;;2.90;;
35188;SDS011;21762;54.480;18.556;2023-04-24T13:23:02;4.15;;;2.95;;
35188;SDS011;21762;54.480;18.556;2023-04-24T13:25:34;6.80;;;2.97;;
35188;SDS011;21762;54.480;18.556;2023-04-24T13:28:04;4.93;;;3.03;;
35188;SDS011;21762;54.480;18.556;2023-04-24T13:30:34;5.32;;;2.83;;
35188;SDS011;21762;54.480;18.556;2023-04-24T13:33:03;4.68;;;3.05;;
35188;SDS011;21762;54.480;18.556;2023-04-24T13:35:31;5.97;;;2.95;;
35188;SDS011;21762;54.480;18.556;2023-04-24T13:38:00;5.38;;;3.13;;
35188;SDS011;21762;54.480;18.556;2023-04-24T13:40:32;5.78;;;2.80;;
35188;SDS011;21762;54.480;18.556;2023-04-24T13:43:01;12.40;;;2.97;;
35188;SDS011;21762;54.480;18.556;2023-04-24T13:45:30;2.90;;;2.45;;
35188;SDS011;21762;54.480;18.556;2023-04-24T13:48:00;6.90;;;2.80;;
35188;SDS011;21762;54.480;18.556;2023-04-24T13:50:29;3.78;;;2.63;;
35188;SDS011;21762;54.480;18.556;2023-04-24T13:52:58;3.17;;;2.78;;
35188;SDS011;21762;54.480;18.556;2023-04-24T13:55:28;8.15;;;3.10;;
35188;SDS011;21762;54.480;18.556;2023-04-24T13:57:58;5.82;;;3.17;;
35188;SDS011;21762;54.480;18.556;2023-04-24T14:00:27;4.28;;;2.70;;
35188;SDS011;21762;54.480;18.556;2023-04-24T14:02:56;4.90;;;2.90;;
35188;SDS011;21762;54.480;18.556;2023-04-24T14:05:27;5.57;;;2.67;;
35188;SDS011;21762;54.480;18.556;2023-04-24T14:07:56;3.00;;;2.60;;
35188;SDS011;21762;54.480;18.556;2023-04-24T14:10:25;5.15;;;2.90;;
35188;SDS011;21762;54.480;18.556;2023-04-24T14:12:54;3.83;;;2.83;;
35188;SDS011;21762;54.480;18.556;2023-04-24T14:15:22;7.28;;;3.30;;
35188;SDS011;21762;54.480;18.556;2023-04-24T14:17:51;8.13;;;3.83;;
35188;SDS011;21762;54.480;18.556;2023-04-24T14:20:23;3.80;;;2.75;;
35188;SDS011;21762;54.480;18.556;2023-04-24T14:22:53;5.18;;;3.53;;
35188;SDS011;21762;54.480;18.556;2023-04-24T14:25:21;3.70;;;2.90;;
35188;SDS011;21762;54.480;18.556;2023-04-24T14:27:50;6.60;;;3.05;;
35188;SDS011;21762;54.480;18.556;2023-04-24T14:30:19;3.35;;;2.58;;
35188;SDS011;21762;54.480;18.556;2023-04-24T14:32:48;4.65;;;2.70;;
35188;SDS011;21762;54.480;18.556;2023-04-24T14:35:16;4.80;;;2.85;;
35188;SDS011;21762;54.480;18.556;2023-04-24T14:37:45;5.72;;;2.97;;
35188;SDS011;21762;54.480;18.556;2023-04-24T14:40:16;4.60;;;2.95;;